createdAt,value
2022-09-28T00:02:12.498Z,11.40
2022-09-28T00:04:41.139Z,11.40
2022-09-28T00:07:09.775Z,11.40
2022-09-28T00:09:40.187Z,11.50
2022-09-28T00:12:08.814Z,11.60
2022-09-28T00:14:37.476Z,11.60
2022-09-28T00:17:06.314Z,11.50
2022-09-28T00:19:35.090Z,11.50
2022-09-28T00:22:03.724Z,11.40
2022-09-28T00:24:32.196Z,11.40
2022-09-28T00:27:03.120Z,11.40
2022-09-28T00:29:33.832Z,11.40
2022-09-28T00:32:04.768Z,11.50
2022-09-28T00:34:36.270Z,11.40
2022-09-28T00:37:06.472Z,11.40
2022-09-28T00:39:36.150Z,11.40
2022-09-28T00:42:15.152Z,11.30
2022-09-28T00:44:47.725Z,11.20
2022-09-28T00:47:38.713Z,11.20
2022-09-28T00:50:12.609Z,11.20
2022-09-28T00:52:44.493Z,11.20
2022-09-28T00:55:17.331Z,11.20
2022-09-28T00:57:53.348Z,11.20
2022-09-28T01:00:22.369Z,11.20
2022-09-28T01:02:51.467Z,11.10
2022-09-28T01:05:20.678Z,11.10
2022-09-28T01:07:50.078Z,11.10
2022-09-28T01:10:18.961Z,11.10
2022-09-28T01:12:49.766Z,11.00
2022-09-28T01:15:22.138Z,11.10
2022-09-28T01:18:05.898Z,11.00
2022-09-28T01:20:57.167Z,10.90
2022-09-28T01:24:24.836Z,10.90
2022-09-28T01:29:56.991Z,10.90
2022-09-28T01:32:37.887Z,10.80
2022-09-28T01:38:21.231Z,10.70
2022-09-28T01:40:51.433Z,10.70
2022-09-28T01:43:24.346Z,10.70
2022-09-28T01:45:59.982Z,10.60
2022-09-28T01:48:34.152Z,10.60
2022-09-28T01:51:07.803Z,10.60
2022-09-28T01:53:42.350Z,10.60
2022-09-28T01:56:14.709Z,10.50
2022-09-28T01:58:49.423Z,10.40
2022-09-28T02:01:23.752Z,10.40
2022-09-28T02:03:57.417Z,10.40
2022-09-28T02:06:32.141Z,10.40
2022-09-28T02:09:05.069Z,10.40
2022-09-28T02:11:37.592Z,10.50
2022-09-28T02:14:09.574Z,10.50
2022-09-28T02:16:42.171Z,10.50
2022-09-28T02:19:14.707Z,10.50
2022-09-28T02:22:13.570Z,10.50
2022-09-28T02:24:46.553Z,10.50
2022-09-28T02:27:19.468Z,10.40
2022-09-28T02:29:48.116Z,10.40
2022-09-28T02:32:21.034Z,10.40
2022-09-28T02:34:49.506Z,10.30
2022-09-28T02:37:18.146Z,10.40
2022-09-28T02:39:46.918Z,10.30
2022-09-28T02:42:30.712Z,10.30
2022-09-28T02:45:18.463Z,10.30
2022-09-28T02:48:03.131Z,10.20
2022-09-28T02:50:43.911Z,10.20
2022-09-28T02:53:42.600Z,10.20
2022-09-28T02:56:39.771Z,10.20
2022-09-28T02:59:17.246Z,10.20
2022-09-28T03:01:54.314Z,10.20
2022-09-28T03:04:32.476Z,10.20
2022-09-28T03:07:07.805Z,10.10
2022-09-28T03:09:41.476Z,10.10
2022-09-28T03:12:12.740Z,10.10
2022-09-28T03:14:41.449Z,10.20
2022-09-28T03:17:10.173Z,10.10
2022-09-28T03:19:40.469Z,10.10
2022-09-28T03:22:09.095Z,10.10
2022-09-28T03:24:37.515Z,10.10
2022-09-28T03:27:31.398Z,10.10
2022-09-28T03:30:00.146Z,10.10
2022-09-28T03:32:28.673Z,10.20
2022-09-28T03:34:58.576Z,10.20
2022-09-28T03:37:55.276Z,10.20
2022-09-28T03:40:24.174Z,10.30
2022-09-28T03:42:52.948Z,10.30
2022-09-28T03:45:21.481Z,10.40
2022-09-28T03:47:52.418Z,10.40
2022-09-28T03:50:22.505Z,10.50
2022-09-28T03:52:51.107Z,10.60
2022-09-28T03:55:19.542Z,10.70
2022-09-28T03:57:55.839Z,10.70
2022-09-28T04:00:24.797Z,10.80
2022-09-28T04:02:53.279Z,10.80
2022-09-28T04:05:23.422Z,10.90
2022-09-28T04:07:53.502Z,10.90
2022-09-28T04:10:28.273Z,10.90
2022-09-28T04:12:57.600Z,11.00
2022-09-28T04:15:26.798Z,11.00
2022-09-28T04:30:26.902Z,11.10
2022-09-28T04:32:55.665Z,11.20
2022-09-28T04:35:24.289Z,11.30
2022-09-28T04:38:01.889Z,11.30
2022-09-28T04:40:30.529Z,11.40
2022-09-28T04:42:59.220Z,11.40
2022-09-28T04:45:29.650Z,11.40
2022-09-28T04:47:58.132Z,11.40
2022-09-28T04:50:27.101Z,11.50
2022-09-28T04:52:55.779Z,11.50
2022-09-28T04:55:24.344Z,11.50
2022-09-28T04:57:53.130Z,11.60
2022-09-28T05:00:22.027Z,11.70
2022-09-28T05:02:52.062Z,11.70
2022-09-28T05:05:20.917Z,11.70
2022-09-28T05:07:50.073Z,11.80
2022-09-28T05:10:20.196Z,11.80
2022-09-28T05:12:48.673Z,11.90
2022-09-28T05:15:17.329Z,12.00
2022-09-28T05:17:46.029Z,12.00
2022-09-28T05:20:31.119Z,12.10
2022-09-28T05:22:59.622Z,12.10
2022-09-28T05:25:28.247Z,12.30
2022-09-28T05:27:57.526Z,12.40
2022-09-28T05:30:26.707Z,12.50
2022-09-28T05:32:55.460Z,12.70
2022-09-28T05:35:23.874Z,12.90
2022-09-28T05:37:55.038Z,13.10
2022-09-28T05:40:24.365Z,13.30
2022-09-28T05:42:52.695Z,13.50
2022-09-28T05:45:21.274Z,13.70
2022-09-28T05:47:49.973Z,13.90
2022-09-28T05:50:18.745Z,14.10
2022-09-28T05:52:47.408Z,14.20
2022-09-28T05:55:17.546Z,14.30
2022-09-28T05:57:45.989Z,14.40
2022-09-28T06:00:14.847Z,14.40
2022-09-28T06:02:43.851Z,14.40
2022-09-28T06:05:12.298Z,14.50
2022-09-28T06:07:41.278Z,14.50
2022-09-28T06:10:10.253Z,14.50
2022-09-28T06:12:40.452Z,14.50
2022-09-28T06:15:10.157Z,14.50
2022-09-28T06:17:38.869Z,14.60
2022-09-28T06:20:08.250Z,14.70
2022-09-28T06:22:36.865Z,14.70
2022-09-28T06:25:06.855Z,14.70
2022-09-28T06:27:36.101Z,14.60
2022-09-28T06:30:10.580Z,14.70
2022-09-28T06:32:39.270Z,14.80
2022-09-28T06:35:09.032Z,15.00
2022-09-28T06:37:37.768Z,15.00
2022-09-28T06:40:07.607Z,15.10
2022-09-28T06:42:36.221Z,15.10
2022-09-28T06:45:04.965Z,15.10
2022-09-28T06:47:35.596Z,15.30
2022-09-28T06:50:03.982Z,15.40
2022-09-28T06:52:32.497Z,15.80
2022-09-28T06:55:01.491Z,15.90
2022-09-28T06:57:30.194Z,16.00
2022-09-28T06:59:58.831Z,16.10
2022-09-28T07:02:27.456Z,16.20
2022-09-28T07:04:57.869Z,16.20
2022-09-28T07:07:27.521Z,16.30
2022-09-28T07:09:56.831Z,16.50
2022-09-28T07:12:25.678Z,16.90
2022-09-28T07:14:57.742Z,17.20
2022-09-28T07:17:26.704Z,17.60
2022-09-28T07:19:59.294Z,17.90
2022-09-28T07:22:41.249Z,18.20
2022-09-28T07:25:10.944Z,18.40
2022-09-28T07:27:39.987Z,18.40
2022-09-28T07:30:09.794Z,18.20
2022-09-28T07:32:39.151Z,18.20
2022-09-28T07:35:10.993Z,18.20
2022-09-28T07:38:05.762Z,18.20
2022-09-28T07:40:52.664Z,18.20
2022-09-28T07:43:22.811Z,18.30
2022-09-28T07:45:55.199Z,18.30
2022-09-28T07:48:24.575Z,18.20
2022-09-28T07:50:57.020Z,18.10
2022-09-28T07:53:26.620Z,18.00
2022-09-28T07:55:56.877Z,18.00
2022-09-28T07:58:25.159Z,18.10
2022-09-28T08:00:53.476Z,18.10
2022-09-28T08:03:23.241Z,18.40
2022-09-28T08:05:53.145Z,18.60
2022-09-28T08:08:22.384Z,18.70
2022-09-28T08:10:52.721Z,18.70
2022-09-28T08:13:23.539Z,18.60
2022-09-28T08:15:55.804Z,18.70
2022-09-28T08:18:24.514Z,18.70
2022-09-28T08:21:12.527Z,18.80
2022-09-28T08:23:40.960Z,19.00
2022-09-28T08:26:14.621Z,19.40
2022-09-28T08:28:45.201Z,19.70
2022-09-28T08:31:13.798Z,19.90
2022-09-28T08:33:43.088Z,20.00
2022-09-28T08:36:12.905Z,20.20
2022-09-28T08:38:41.249Z,20.40
2022-09-28T08:41:19.436Z,20.60
2022-09-28T08:44:06.426Z,20.80
2022-09-28T08:46:38.670Z,21.10
2022-09-28T08:49:30.548Z,21.30
2022-09-28T08:52:04.662Z,21.40
2022-09-28T08:54:39.898Z,21.50
2022-09-28T08:57:18.786Z,21.50
2022-09-28T08:59:51.468Z,21.40
2022-09-28T09:02:25.664Z,21.50
2022-09-28T09:04:54.634Z,21.70
2022-09-28T09:07:48.930Z,21.80
2022-09-28T09:10:39.438Z,21.80
2022-09-28T09:13:20.526Z,21.80
2022-09-28T09:15:55.309Z,21.60
2022-09-28T09:18:33.837Z,21.60
2022-09-28T09:21:11.078Z,21.60
2022-09-28T09:23:51.556Z,21.60
2022-09-28T09:26:25.125Z,21.80
2022-09-28T09:29:20.880Z,21.90
2022-09-28T09:32:04.391Z,22.00
2022-09-28T09:35:06.667Z,22.00
2022-09-28T09:37:59.521Z,22.10
2022-09-28T09:40:49.530Z,22.20
2022-09-28T09:43:50.641Z,22.40
2022-09-28T09:46:23.796Z,22.50
2022-09-28T09:48:56.367Z,22.50
2022-09-28T09:51:34.710Z,22.50
2022-09-28T09:54:07.648Z,22.60
2022-09-28T09:56:41.667Z,22.70
2022-09-28T09:59:16.507Z,22.90
2022-09-28T10:01:46.061Z,22.80
2022-09-28T10:04:23.756Z,22.60
2022-09-28T10:06:58.036Z,22.40
2022-09-28T10:09:29.054Z,22.30
2022-09-28T10:11:59.421Z,22.30
2022-09-28T10:14:28.991Z,22.40
2022-09-28T10:16:59.151Z,22.50
2022-09-28T10:19:32.555Z,22.60
2022-09-28T10:22:03.073Z,22.70
2022-09-28T10:24:33.848Z,22.60
2022-09-28T10:27:07.347Z,22.60
2022-09-28T10:29:45.145Z,22.80
2022-09-28T10:32:25.232Z,22.70
2022-09-28T10:35:43.930Z,22.70
2022-09-28T10:38:18.699Z,22.60
2022-09-28T10:40:48.668Z,22.60
2022-09-28T10:43:23.940Z,22.50
2022-09-28T10:46:03.206Z,22.40
2022-09-28T10:48:47.431Z,22.60
2022-09-28T10:51:18.505Z,22.90
2022-09-28T10:54:15.605Z,23.00
2022-09-28T10:56:45.856Z,23.00
2022-09-28T10:59:39.951Z,22.80
2022-09-28T11:02:21.906Z,22.70
2022-09-28T11:04:59.826Z,22.60
2022-09-28T11:07:33.420Z,22.60
2022-09-28T11:10:21.494Z,22.50
2022-09-28T11:12:51.880Z,22.50
2022-09-28T11:15:23.550Z,22.50
2022-09-28T11:17:52.227Z,22.50
2022-09-28T11:21:12.446Z,22.40
2022-09-28T11:23:44.959Z,22.40
2022-09-28T11:26:18.371Z,22.40
2022-09-28T11:28:52.847Z,22.40
2022-09-28T11:31:29.340Z,22.50
2022-09-28T11:34:17.731Z,22.40
2022-09-28T11:37:07.573Z,22.40
2022-09-28T11:39:47.594Z,22.40
2022-09-28T11:42:50.406Z,22.30
2022-09-28T11:45:33.707Z,22.20
2022-09-28T11:48:17.089Z,22.20
2022-09-28T11:50:51.265Z,22.20
2022-09-28T11:53:29.144Z,22.40
2022-09-28T11:56:08.575Z,22.40
2022-09-28T11:58:43.298Z,22.50
2022-09-28T12:01:23.199Z,22.60
2022-09-28T12:03:57.411Z,22.70
2022-09-28T12:06:32.729Z,22.70
2022-09-28T12:09:09.398Z,22.80
2022-09-28T12:11:44.082Z,22.60
2022-09-28T12:14:19.795Z,22.50
2022-09-28T12:17:05.875Z,22.60
2022-09-28T12:20:13.338Z,22.70
2022-09-28T12:22:47.146Z,22.60
2022-09-28T12:25:20.667Z,22.60
2022-09-28T12:27:53.416Z,22.50
2022-09-28T12:30:25.745Z,22.50
2022-09-28T12:33:01.827Z,22.60
2022-09-28T12:35:45.135Z,22.50
2022-09-28T12:38:40.504Z,22.50
2022-09-28T12:41:24.835Z,22.50
2022-09-28T12:44:13.393Z,22.50
2022-09-28T12:47:00.444Z,22.40
2022-09-28T12:55:37.334Z,22.20
2022-09-28T12:58:22.496Z,22.20
2022-09-28T13:01:33.274Z,22.10
2022-09-28T13:04:18.995Z,22.00
2022-09-28T13:07:07.411Z,22.00
2022-09-28T13:10:15.200Z,22.00
2022-09-28T13:12:55.825Z,22.00
2022-09-28T13:15:36.870Z,22.00
2022-09-28T13:18:20.034Z,22.00
2022-09-28T13:21:11.286Z,22.00
2022-09-28T13:23:42.820Z,22.00
2022-09-28T13:26:20.656Z,22.00
2022-09-28T13:28:53.649Z,22.00
2022-09-28T13:31:29.255Z,21.90
2022-09-28T13:34:07.388Z,21.90
2022-09-28T13:36:43.466Z,21.90
2022-09-28T13:39:40.714Z,21.90
2022-09-28T13:42:13.293Z,21.90
2022-09-28T13:45:17.678Z,21.90
2022-09-28T13:48:06.231Z,21.90
2022-09-28T13:50:49.904Z,21.80
2022-09-28T13:53:27.670Z,21.80
2022-09-28T13:56:06.834Z,21.80
2022-09-28T13:58:40.781Z,21.80
2022-09-28T14:01:13.059Z,21.70
2022-09-28T14:03:58.235Z,21.70
2022-09-28T14:06:29.354Z,21.70
2022-09-28T14:09:28.901Z,21.80
2022-09-28T14:12:01.783Z,21.80
2022-09-28T14:14:53.439Z,21.80
2022-09-28T14:18:12.161Z,21.80
2022-09-28T14:20:48.034Z,21.90
2022-09-28T14:23:59.873Z,21.90
2022-09-28T14:27:05.327Z,21.80
2022-09-28T14:29:38.014Z,21.80
2022-09-28T14:32:24.709Z,21.80
2022-09-28T14:35:04.631Z,21.80
2022-09-28T14:37:52.505Z,21.80
2022-09-28T14:40:42.877Z,21.70
2022-09-28T14:43:27.543Z,21.70
2022-09-28T14:46:36.789Z,21.60
2022-09-28T14:49:23.491Z,21.60
2022-09-28T14:52:06.703Z,21.50
2022-09-28T14:54:47.039Z,21.40
2022-09-28T14:57:21.566Z,21.40
2022-09-28T14:59:50.201Z,21.30
2022-09-28T15:02:33.657Z,21.30
2022-09-28T15:05:15.480Z,21.20
2022-09-28T15:07:48.083Z,21.20
2022-09-28T15:10:27.802Z,21.20
2022-09-28T15:12:57.784Z,21.20
2022-09-28T15:15:31.410Z,21.20
2022-09-28T15:18:09.603Z,21.20
2022-09-28T15:20:43.745Z,21.20
2022-09-28T15:23:28.004Z,21.10
2022-09-28T15:25:57.272Z,21.00
2022-09-28T15:28:26.154Z,20.80
2022-09-28T15:31:01.573Z,20.80
2022-09-28T15:34:03.670Z,20.60
2022-09-28T15:36:39.480Z,20.60
2022-09-28T15:39:14.415Z,20.50
2022-09-28T15:41:44.534Z,20.40
2022-09-28T15:44:33.102Z,20.20
2022-09-28T15:47:15.042Z,20.10
2022-09-28T15:49:47.322Z,20.00
2022-09-28T15:52:39.177Z,19.90
2022-09-28T15:55:22.123Z,19.80
2022-09-28T15:57:50.718Z,19.60
2022-09-28T16:00:28.588Z,19.50
2022-09-28T16:03:23.117Z,19.40
2022-09-28T16:05:53.149Z,19.20
2022-09-28T16:08:38.014Z,19.00
2022-09-28T16:11:13.854Z,18.90
2022-09-28T16:13:55.464Z,18.70
2022-09-28T16:16:29.975Z,18.50
2022-09-28T16:19:01.268Z,18.50
2022-09-28T16:21:52.518Z,18.30
2022-09-28T16:24:26.844Z,18.20
2022-09-28T16:27:02.446Z,18.10
2022-09-28T16:29:40.198Z,18.00
2022-09-28T16:32:42.011Z,17.90
2022-09-28T16:35:20.001Z,17.80
2022-09-28T16:37:55.585Z,17.60
2022-09-28T16:40:25.547Z,17.50
2022-09-28T16:42:57.072Z,17.50
2022-09-28T16:45:25.830Z,17.40
2022-09-28T16:47:57.294Z,17.40
2022-09-28T16:50:27.340Z,17.30
2022-09-28T16:53:19.638Z,17.20
2022-09-28T16:55:50.795Z,17.10
2022-09-28T16:58:19.209Z,17.10
2022-09-28T17:00:47.532Z,17.10
2022-09-28T17:03:18.521Z,17.00
2022-09-28T17:05:48.322Z,17.00
2022-09-28T17:08:18.661Z,16.90
2022-09-28T17:13:42.658Z,16.90
2022-09-28T17:16:14.558Z,16.90
2022-09-28T17:18:43.334Z,16.90
2022-09-28T17:21:15.918Z,16.90
2022-09-28T17:23:44.516Z,16.90
2022-09-28T17:26:21.944Z,16.80
2022-09-28T17:28:50.267Z,16.90
2022-09-28T17:31:19.069Z,16.80
2022-09-28T17:33:47.511Z,16.80
2022-09-28T17:36:17.710Z,16.90
2022-09-28T17:38:47.258Z,17.00
2022-09-28T17:41:20.648Z,17.10
2022-09-28T17:43:49.540Z,17.20
2022-09-28T17:46:27.552Z,17.30
2022-09-28T17:48:57.658Z,17.40
2022-09-28T17:51:26.500Z,17.40
2022-09-28T17:54:01.647Z,17.60
2022-09-28T17:56:32.800Z,17.60
2022-09-28T17:59:03.473Z,17.60
2022-09-28T18:01:34.724Z,17.60
2022-09-28T18:04:05.050Z,17.50
2022-09-28T18:06:34.615Z,17.40
2022-09-28T18:09:04.493Z,17.30
2022-09-28T18:11:35.369Z,17.20
2022-09-28T18:14:05.811Z,17.10
2022-09-28T18:16:37.952Z,16.90
2022-09-28T18:19:06.324Z,16.80
2022-09-28T18:21:34.811Z,16.80
2022-09-28T18:24:03.496Z,16.70
2022-09-28T18:26:33.467Z,16.70
2022-09-28T18:29:01.709Z,16.70
2022-09-28T18:31:30.134Z,16.60
2022-09-28T18:34:01.335Z,16.60
2022-09-28T18:36:30.427Z,16.60
2022-09-28T18:38:58.776Z,16.50
2022-09-28T18:41:27.053Z,16.50
2022-09-28T18:44:01.056Z,16.50
2022-09-28T18:46:30.475Z,16.50
2022-09-28T18:48:58.876Z,16.40
2022-09-28T18:51:27.248Z,16.40
2022-09-28T18:53:55.824Z,16.30
2022-09-28T18:56:24.142Z,16.30
2022-09-28T18:58:52.739Z,16.30
2022-09-28T19:01:29.820Z,16.20
2022-09-28T19:04:01.117Z,16.20
2022-09-28T19:06:36.087Z,16.20
2022-09-28T19:09:08.429Z,16.10
2022-09-28T19:11:37.527Z,16.10
2022-09-28T19:14:06.004Z,16.10
2022-09-28T19:16:35.780Z,16.00
2022-09-28T19:19:04.440Z,16.00
2022-09-28T19:21:33.405Z,15.90
2022-09-28T19:24:02.240Z,15.80
2022-09-28T19:26:32.785Z,15.70
2022-09-28T19:29:02.881Z,15.70
2022-09-28T19:31:32.820Z,15.70
2022-09-28T19:34:02.904Z,15.60
2022-09-28T19:36:31.406Z,15.60
2022-09-28T19:39:03.376Z,15.60
2022-09-28T19:41:48.045Z,15.60
2022-09-28T19:44:25.108Z,15.50
2022-09-28T19:46:55.300Z,15.50
2022-09-28T19:49:27.086Z,15.50
2022-09-28T19:52:14.785Z,15.50
2022-09-28T19:54:45.368Z,15.40
2022-09-28T19:57:15.977Z,15.40
2022-09-28T19:59:49.475Z,15.30
2022-09-28T20:02:19.284Z,15.20
2022-09-28T20:04:49.194Z,15.20
2022-09-28T20:07:17.625Z,15.20
2022-09-28T20:09:45.964Z,15.10
2022-09-28T20:12:14.299Z,15.00
2022-09-28T20:14:42.732Z,15.00
2022-09-28T20:17:11.092Z,14.90
2022-09-28T20:19:39.877Z,14.90
2022-09-28T20:22:09.854Z,14.80
2022-09-28T20:24:38.341Z,14.80
2022-09-28T20:27:06.851Z,14.80
2022-09-28T20:29:35.548Z,14.70
2022-09-28T20:32:05.006Z,14.70
2022-09-28T20:34:34.357Z,14.70
2022-09-28T20:37:02.758Z,14.70
2022-09-28T20:39:32.664Z,14.60
2022-09-28T20:42:01.057Z,14.60
2022-09-28T20:44:29.714Z,14.60
2022-09-28T20:46:58.051Z,14.60
2022-09-28T20:49:28.537Z,14.60
2022-09-28T20:51:57.056Z,14.50
2022-09-28T20:54:25.993Z,14.50
2022-09-28T20:56:55.904Z,14.50
2022-09-28T20:59:26.592Z,14.40
2022-09-28T21:01:55.540Z,14.40
2022-09-28T21:04:24.479Z,14.40
2022-09-28T21:06:58.718Z,14.40
2022-09-28T21:09:53.711Z,14.40
2022-09-28T21:12:26.014Z,14.30
2022-09-28T21:15:16.275Z,14.30
2022-09-28T21:17:44.683Z,14.20
2022-09-28T21:20:12.997Z,14.20
2022-09-28T21:22:41.300Z,14.10
2022-09-28T21:25:10.731Z,14.10
2022-09-28T21:27:40.383Z,14.10
2022-09-28T21:30:10.726Z,14.10
2022-09-28T21:32:39.410Z,14.10
2022-09-28T21:35:08.812Z,14.10
2022-09-28T21:37:37.248Z,14.10
2022-09-28T21:40:09.680Z,14.10
2022-09-28T21:42:39.423Z,14.10
2022-09-28T21:45:12.705Z,14.20
2022-09-28T21:47:43.733Z,14.20
2022-09-28T21:50:12.187Z,14.30
2022-09-28T21:52:40.544Z,14.30
2022-09-28T21:55:10.460Z,14.40
2022-09-28T21:57:40.825Z,14.40
2022-09-28T22:00:12.061Z,14.40
2022-09-28T22:02:41.414Z,14.50
2022-09-28T22:05:11.415Z,14.50
2022-09-28T22:07:41.207Z,14.50
2022-09-28T22:10:13.864Z,14.50
2022-09-28T22:12:43.756Z,14.50
2022-09-28T22:15:12.609Z,14.50
2022-09-28T22:17:41.448Z,14.50
2022-09-28T22:20:10.414Z,14.50
2022-09-28T22:22:41.291Z,14.50
2022-09-28T22:25:21.854Z,14.60
2022-09-28T22:27:51.983Z,14.60
2022-09-28T22:30:20.300Z,14.60
2022-09-28T22:32:48.644Z,14.50
2022-09-28T22:35:19.086Z,14.50
2022-09-28T22:37:47.408Z,14.60
2022-09-28T22:40:16.203Z,14.60
2022-09-28T22:42:44.470Z,14.70
2022-09-28T22:45:14.137Z,14.70
2022-09-28T22:47:42.896Z,14.80
2022-09-28T22:50:11.558Z,14.80
2022-09-28T22:52:40.027Z,14.80
2022-09-28T22:55:34.199Z,14.80
2022-09-28T22:58:03.247Z,14.80
2022-09-28T23:00:32.999Z,14.80
2022-09-28T23:03:01.495Z,14.90
2022-09-28T23:05:30.030Z,14.90
2022-09-28T23:07:58.365Z,14.90
2022-09-28T23:10:26.945Z,14.90
2022-09-28T23:12:55.441Z,14.90
2022-09-28T23:15:24.950Z,14.90
2022-09-28T23:17:54.733Z,14.90
2022-09-28T23:20:23.736Z,14.90
2022-09-28T23:22:52.123Z,14.80
2022-09-28T23:25:20.869Z,14.80
2022-09-28T23:27:50.324Z,14.80
2022-09-28T23:30:20.601Z,14.80
2022-09-28T23:32:49.053Z,14.80
2022-09-28T23:35:18.988Z,14.80
2022-09-28T23:37:51.674Z,14.80
2022-09-28T23:40:20.155Z,14.80
2022-09-28T23:42:48.499Z,14.90
2022-09-28T23:45:16.873Z,14.90
2022-09-28T23:47:45.678Z,14.80
2022-09-28T23:50:14.139Z,14.70
2022-09-28T23:52:43.859Z,14.70
2022-09-28T23:55:12.149Z,14.70
2022-09-28T23:57:41.390Z,14.70
